Kouma-Konda, Togo

3:16 PM GMT on August 22, 2014 (GMT +0000)
Akpaka | Change Station
CLOSE
Current Station
Airport
Location: Atakpame,
Elevation: 1319 ft
Nearby Weather Stations

Elev 1319 ft 7.58 °N, 1.12 °E | Updated 4 days ago

Thunderstorm
Thunderstorm
80 °F
Feels Like 80 °F
N
5
Wind Variable Wind from West
Gusts mph

Today
High -- | Low -- °F
--% Chance of Precip.
Yesterday
High -- | Low -- °F
Precip. -- in
5:51 AM 6:09 PM
Waning Crescent, 8% visible
Pressure 29.92 in
Visibility 6.2 miles
Clouds Mostly Cloudy 1300 ft
Mostly Cloudy 13000 ft
Dew Point 72 °F
Humidity 72%
Rainfall 0.00 in
Snow Depth Not available.
UV 0 out of 12
Pollen Not available.
Air Quality Not available.
Flu Activity Not available.
METAR DXAK 171800Z 18004KT 9999 BKN013 BKN130 26/22 Q1013

More Conditions Fewer Conditions

Pressure 29.92 in
Visibility 6.2 miles
Clouds Mostly Cloudy 1300 ft
Mostly Cloudy 13000 ft
Dew Point 72 °F
Humidity 72%
Rainfall 0.00 in
Snow Depth Not available.
UV 0 out of 12
Pollen Not available.
Air Quality Not available.
Flu Activity Not available.
METAR DXAK 171800Z 18004KT 9999 BKN013 BKN130 26/22 Q1013

More Conditions Fewer Conditions

10-Day Weather Forecast

Almanac

Astronomy

Aug. 22, 2014 Rise Set
Actual Time 5:51 AM GMT 6:09 PM GMT
Civil Twilight 5:30 AM GMT 6:30 PM GMT
Nautical Twilight 5:05 AM GMT 6:55 PM GMT
Astronomical Twilight 4:40 AM GMT 7:20 PM GMT
Moon 3:16 AM GMT 3:55 PM GMT
Length of Visible Light 13h 00m
Length of Day
12h 18m
Tomorrow will be 0m 21s shorter.
Waning Crescent, 8% of the Moon is Illuminated
Today
Waning Crescent
Aug 25
New
Sep 2
First Quarter
Sep 8
Full
Sep 15
Last Quarter

Today's Extremes

Country Highs Country Lows

Community

WunderPhotos

Upload Photos

1,746,187 photos uploaded!

WunderBlogs® & News

Nearby

Snow Depth

Not available.

Earthquake Activity

City Distance Mag. Time & Date
No recent earthquake activity has been reported nearby.
Minimum magnitude displayed is 2.5.

Coastal Water Temperatures

Place Temperature
No Stations Reporting

Nearby Weather Stations